createdAt,value
2023-02-16T00:02:48.067Z,21.50
2023-02-16T00:07:49.482Z,21.92
2023-02-16T00:13:07.470Z,20.15
2023-02-16T00:18:16.689Z,19.80
2023-02-16T00:23:16.382Z,19.75
2023-02-16T00:28:20.481Z,20.83
2023-02-16T00:33:19.790Z,20.45
2023-02-16T00:38:16.905Z,18.23
2023-02-16T00:43:28.190Z,20.15
2023-02-16T00:48:27.477Z,17.85
2023-02-16T00:53:24.742Z,17.42
2023-02-16T00:58:30.055Z,18.40
2023-02-16T01:03:32.545Z,19.37
2023-02-16T01:08:47.801Z,18.73
2023-02-16T01:13:47.959Z,18.00
2023-02-16T01:18:45.960Z,19.08
2023-02-16T01:23:46.063Z,18.38
2023-02-16T01:28:43.669Z,20.13
2023-02-16T01:33:44.630Z,18.83
2023-02-16T01:38:44.318Z,18.95
2023-02-16T01:43:48.477Z,20.73
2023-02-16T01:48:56.288Z,18.05
2023-02-16T01:54:09.640Z,19.08
2023-02-16T01:59:17.676Z,18.55
2023-02-16T02:04:42.272Z,19.58
2023-02-16T02:09:45.091Z,20.42
2023-02-16T02:14:45.308Z,23.38
2023-02-16T02:19:57.071Z,21.40
2023-02-16T02:25:24.222Z,22.45
2023-02-16T02:30:46.637Z,22.48
2023-02-16T02:35:51.365Z,22.23
2023-02-16T02:41:07.715Z,20.63
2023-02-16T02:46:13.069Z,21.55
2023-02-16T02:51:37.493Z,20.73
2023-02-16T02:57:08.768Z,20.67
2023-02-16T03:02:08.947Z,20.83
2023-02-16T03:07:11.121Z,21.45
2023-02-16T03:12:37.021Z,23.30
2023-02-16T03:17:56.213Z,23.88
2023-02-16T03:23:15.820Z,21.60
2023-02-16T03:28:40.613Z,22.27
2023-02-16T03:33:39.468Z,23.95
2023-02-16T03:38:39.233Z,23.75
2023-02-16T03:43:36.608Z,27.80
2023-02-16T03:48:33.812Z,46.17
2023-02-16T03:53:35.007Z,33.47
2023-02-16T03:58:34.195Z,27.60
2023-02-16T04:03:33.759Z,27.98
2023-02-16T04:08:34.948Z,29.50
2023-02-16T04:13:32.458Z,29.38
2023-02-16T04:18:29.990Z,30.48
2023-02-16T04:23:30.573Z,38.78
2023-02-16T04:28:28.641Z,54.80
2023-02-16T04:33:32.158Z,32.70
2023-02-16T04:38:38.473Z,34.83
2023-02-16T04:43:39.415Z,36.03
2023-02-16T04:48:37.230Z,34.72
2023-02-16T04:53:34.944Z,35.45
2023-02-16T04:58:33.544Z,40.25
2023-02-16T05:03:38.098Z,39.92
2023-02-16T05:08:58.725Z,42.90
2023-02-16T05:14:20.035Z,67.15
2023-02-16T05:19:52.426Z,45.13
2023-02-16T05:24:56.129Z,54.35
2023-02-16T05:30:05.983Z,48.45
2023-02-16T05:40:34.961Z,38.47
2023-02-16T05:51:57.586Z,37.85
2023-02-16T05:57:54.254Z,42.58
2023-02-16T06:03:40.823Z,45.60
2023-02-16T06:09:00.109Z,45.00
2023-02-16T06:14:06.095Z,45.85
2023-02-16T06:19:16.964Z,48.17
2023-02-16T06:24:26.091Z,55.67
2023-02-16T06:29:35.445Z,45.83
2023-02-16T06:34:54.880Z,49.05
2023-02-16T06:39:58.996Z,42.58
2023-02-16T06:45:02.984Z,40.78
2023-02-16T06:50:20.837Z,47.17
2023-02-16T06:55:45.748Z,59.08
2023-02-16T07:01:00.459Z,49.45
2023-02-16T07:06:37.055Z,39.55
2023-02-16T07:11:46.061Z,40.45
2023-02-16T07:17:11.835Z,43.33
2023-02-16T07:22:26.927Z,36.72
2023-02-16T07:27:54.626Z,35.30
2023-02-16T07:33:32.534Z,33.08
2023-02-16T07:39:35.100Z,36.65
2023-02-16T07:45:42.082Z,39.78
2023-02-16T07:51:33.851Z,36.55
2023-02-16T07:57:20.313Z,36.17
2023-02-16T08:02:36.003Z,34.67
2023-02-16T08:07:41.470Z,36.10
2023-02-16T08:12:46.891Z,33.70
2023-02-16T08:17:50.003Z,35.33
2023-02-16T08:22:55.176Z,29.35
2023-02-16T08:29:18.176Z,30.13
2023-02-16T08:34:43.212Z,27.20
2023-02-16T08:52:21.608Z,25.35
2023-02-16T08:58:31.174Z,24.13
2023-02-16T09:10:28.846Z,23.70
2023-02-16T09:16:10.373Z,24.00
2023-02-16T09:28:04.116Z,23.88
2023-02-16T09:33:27.357Z,24.85
2023-02-16T09:44:37.903Z,23.63
2023-02-16T09:50:06.269Z,24.67
2023-02-16T10:14:02.991Z,21.63
2023-02-16T10:19:32.392Z,25.50
2023-02-16T10:24:53.933Z,25.02
2023-02-16T10:30:13.000Z,26.33
2023-02-16T10:35:18.860Z,25.02
2023-02-16T10:45:58.736Z,27.70
2023-02-16T10:51:29.980Z,25.92
2023-02-16T10:56:57.973Z,25.67
2023-02-16T11:07:25.982Z,25.27
2023-02-16T11:12:31.349Z,25.48
2023-02-16T11:17:30.512Z,24.55
2023-02-16T11:22:49.195Z,24.23
2023-02-16T11:27:56.311Z,23.88
2023-02-16T11:33:26.130Z,22.05
2023-02-16T11:38:49.344Z,22.90
2023-02-16T11:44:20.972Z,21.90
2023-02-16T11:54:54.415Z,22.27
2023-02-16T12:07:04.313Z,22.92
2023-02-16T12:12:54.552Z,20.23
2023-02-16T12:18:19.550Z,20.92
2023-02-16T12:24:50.444Z,23.85
2023-02-16T12:31:21.745Z,23.05
2023-02-16T12:36:33.598Z,20.13
2023-02-16T12:42:17.476Z,20.73
2023-02-16T12:47:45.778Z,19.55
2023-02-16T12:53:16.431Z,18.08
2023-02-16T12:58:48.104Z,19.80
2023-02-16T13:11:45.989Z,20.33
2023-02-16T13:16:48.765Z,19.55
2023-02-16T13:22:31.494Z,18.45
2023-02-16T13:28:00.187Z,17.58
2023-02-16T13:33:42.496Z,17.73
2023-02-16T13:39:24.058Z,15.88
2023-02-16T13:44:36.327Z,18.20
2023-02-16T13:50:16.862Z,19.30
2023-02-16T13:55:39.495Z,19.75
2023-02-16T14:00:55.857Z,18.48
2023-02-16T14:05:55.531Z,18.10
2023-02-16T14:11:36.386Z,18.30
2023-02-16T14:18:39.953Z,18.55
2023-02-16T14:24:28.208Z,17.75
2023-02-16T14:29:56.776Z,16.88
2023-02-16T14:35:04.124Z,15.63
2023-02-16T14:40:22.487Z,18.33
2023-02-16T14:46:20.925Z,18.00
2023-02-16T14:52:17.334Z,18.55
2023-02-16T14:57:36.428Z,17.25
2023-02-16T15:03:48.546Z,20.27
2023-02-16T15:09:13.975Z,19.42
2023-02-16T15:20:45.721Z,19.40
2023-02-16T15:26:57.696Z,19.55
2023-02-16T15:40:02.944Z,19.95
2023-02-16T15:46:00.827Z,19.75
2023-02-16T15:52:13.637Z,19.52
2023-02-16T16:04:15.181Z,21.20
2023-02-16T16:15:21.972Z,23.50
2023-02-16T16:20:36.281Z,25.38
2023-02-16T16:38:04.725Z,28.13
2023-02-16T16:50:13.840Z,29.63
2023-02-16T17:15:48.754Z,36.20
2023-02-16T17:40:53.915Z,48.38
2023-02-16T17:46:58.253Z,37.03
2023-02-16T17:52:45.224Z,43.20
2023-02-16T18:05:01.642Z,53.63
2023-02-16T18:10:54.249Z,56.20
2023-02-16T18:17:17.430Z,60.30
2023-02-16T18:23:05.173Z,64.70
2023-02-16T18:28:09.136Z,72.22
2023-02-16T18:33:29.338Z,59.67
2023-02-16T18:38:50.514Z,64.07
2023-02-16T18:44:26.269Z,75.82
2023-02-16T18:49:55.638Z,66.47
2023-02-16T18:54:57.316Z,69.25
2023-02-16T19:00:00.829Z,69.72
2023-02-16T19:05:00.764Z,73.95
2023-02-16T19:10:06.435Z,66.18
2023-02-16T19:15:20.597Z,68.38
2023-02-16T19:20:49.029Z,73.13
2023-02-16T19:25:50.969Z,74.15
2023-02-16T19:30:49.933Z,74.50
2023-02-16T19:36:13.969Z,76.78
2023-02-16T19:41:33.032Z,72.43
2023-02-16T19:46:34.388Z,90.85
2023-02-16T19:51:36.583Z,82.55
2023-02-16T19:56:40.150Z,75.60
2023-02-16T20:02:00.607Z,77.15
2023-02-16T20:07:08.443Z,69.20
2023-02-16T20:12:31.135Z,68.93
2023-02-16T20:17:30.659Z,70.40
2023-02-16T20:22:37.135Z,67.72
2023-02-16T20:27:38.619Z,64.68
2023-02-16T20:32:48.182Z,53.85
2023-02-16T20:37:51.537Z,52.67
2023-02-16T20:42:52.089Z,52.40
2023-02-16T20:47:55.495Z,53.80
2023-02-16T20:52:58.991Z,46.65
2023-02-16T20:57:57.962Z,47.45
2023-02-16T21:02:58.112Z,43.80
2023-02-16T21:07:56.835Z,43.58
2023-02-16T21:12:58.816Z,43.08
2023-02-16T21:18:06.072Z,40.15
2023-02-16T21:23:06.969Z,41.30
2023-02-16T21:28:07.824Z,38.13
2023-02-16T21:33:16.364Z,36.72
2023-02-16T21:38:17.339Z,38.03
2023-02-16T21:43:23.493Z,34.67
2023-02-16T21:48:41.455Z,31.02
2023-02-16T21:53:41.393Z,30.38
2023-02-16T21:58:40.582Z,38.60
2023-02-16T22:03:42.046Z,36.58
2023-02-16T22:08:44.346Z,32.47
2023-02-16T22:13:41.755Z,32.55
2023-02-16T22:18:40.429Z,31.15
2023-02-16T22:23:39.377Z,31.13
2023-02-16T22:28:37.230Z,28.17
2023-02-16T22:33:38.069Z,27.70
2023-02-16T22:38:35.426Z,26.15
2023-02-16T22:43:34.640Z,26.88
2023-02-16T22:48:31.828Z,27.13
2023-02-16T22:53:29.824Z,25.42
2023-02-16T22:58:29.999Z,26.08
2023-02-16T23:03:29.463Z,24.15
2023-02-16T23:08:35.321Z,25.23
2023-02-16T23:13:37.017Z,25.73
2023-02-16T23:18:36.508Z,25.13
2023-02-16T23:23:36.186Z,23.98
2023-02-16T23:28:33.861Z,24.50
2023-02-16T23:33:40.078Z,24.02
2023-02-16T23:38:46.395Z,24.02
2023-02-16T23:43:45.589Z,23.17
2023-02-16T23:48:43.574Z,24.00
2023-02-16T23:53:41.077Z,23.00
2023-02-16T23:58:44.552Z,20.70
